createdAt,value
2016-05-23T00:00:06.384Z,0
2016-05-23T00:01:06.840Z,0
2016-05-23T00:02:06.406Z,0
2016-05-23T00:03:06.440Z,0
2016-05-23T00:04:06.645Z,0
2016-05-23T00:05:06.336Z,0
2016-05-23T00:06:07.073Z,0
2016-05-23T00:07:06.466Z,0
2016-05-23T00:08:06.250Z,0
2016-05-23T00:09:06.784Z,0
2016-05-23T00:10:34.649Z,0
2016-05-23T00:11:20.824Z,0
2016-05-23T00:12:06.355Z,0
2016-05-23T00:13:06.733Z,0
2016-05-23T00:14:06.610Z,0
2016-05-23T00:15:06.252Z,0
2016-05-23T00:16:06.568Z,0
2016-05-23T00:17:07.166Z,0
2016-05-23T00:18:06.636Z,0
2016-05-23T00:19:06.623Z,0
2016-05-23T00:20:06.658Z,0
2016-05-23T00:21:06.863Z,0
2016-05-23T00:22:06.241Z,0
2016-05-23T00:23:06.853Z,0
2016-05-23T00:26:06.907Z,0
2016-05-23T00:27:06.536Z,0
2016-05-23T00:28:06.741Z,0
2016-05-23T00:29:06.995Z,0
2016-05-23T00:30:20.796Z,0
2016-05-23T00:31:06.625Z,0
2016-05-23T00:32:06.940Z,0
2016-05-23T00:33:06.755Z,0
2016-05-23T00:34:06.820Z,0
2016-05-23T00:35:06.557Z,0
2016-05-23T00:36:07.059Z,0
2016-05-23T00:37:06.672Z,0
2016-05-23T00:38:06.831Z,0
2016-05-23T00:39:07.053Z,0
2016-05-23T00:40:06.945Z,0
2016-05-23T00:41:06.698Z,0
2016-05-23T00:42:07.154Z,0
2016-05-23T00:43:06.875Z,0
2016-05-23T00:44:07.550Z,0
2016-05-23T00:45:06.647Z,0
2016-05-23T00:46:07.149Z,0
2016-05-23T00:47:06.918Z,0
2016-05-23T00:48:06.967Z,0
2016-05-23T00:49:07.157Z,0
2016-05-23T00:51:06.944Z,0
2016-05-23T00:52:06.791Z,0
2016-05-23T00:53:21.342Z,0
2016-05-23T00:55:07.236Z,0
2016-05-23T00:56:07.067Z,0
2016-05-23T00:57:21.354Z,0
2016-05-23T00:58:06.573Z,0
2016-05-23T00:59:07.731Z,0
2016-05-23T01:00:06.906Z,0
2016-05-23T01:01:06.892Z,0
2016-05-23T01:02:07.505Z,0
2016-05-23T01:03:21.150Z,0
2016-05-23T01:04:07.572Z,0
2016-05-23T01:06:07.547Z,0
2016-05-23T01:07:07.315Z,0
2016-05-23T01:08:07.145Z,0
2016-05-23T01:09:06.836Z,0
2016-05-23T01:10:07.339Z,0
2016-05-23T01:11:07.216Z,0
2016-05-23T01:12:07.016Z,0
2016-05-23T01:13:07.066Z,0
2016-05-23T01:14:07.475Z,0
2016-05-23T01:15:07.430Z,0
2016-05-23T01:17:21.501Z,0
2016-05-23T01:18:21.910Z,0
2016-05-23T01:19:07.285Z,0
2016-05-23T01:20:07.085Z,0
2016-05-23T01:21:07.260Z,0
2016-05-23T01:22:07.777Z,0
2016-05-23T01:23:21.407Z,0
2016-05-23T01:24:07.532Z,0
2016-05-23T01:25:06.863Z,0
2016-05-23T01:26:07.382Z,0
2016-05-23T01:27:07.321Z,0
2016-05-23T01:28:06.857Z,0
2016-05-23T01:29:07.390Z,0
2016-05-23T01:30:07.392Z,0
2016-05-23T01:31:07.223Z,0
2016-05-23T01:32:08.007Z,0
2016-05-23T01:33:07.604Z,0
2016-05-23T01:34:07.403Z,0
2016-05-23T01:35:07.422Z,0
2016-05-23T01:36:07.440Z,0
2016-05-23T01:37:07.661Z,0
2016-05-23T01:38:07.430Z,0
2016-05-23T01:39:07.369Z,0
2016-05-23T01:40:21.406Z,0
2016-05-23T01:41:07.703Z,0
2016-05-23T01:42:07.503Z,0
2016-05-23T01:43:07.569Z,0
2016-05-23T01:44:07.883Z,0
2016-05-23T01:45:07.089Z,0
2016-05-23T01:46:21.829Z,0
2016-05-23T01:47:07.422Z,0
2016-05-23T01:48:07.785Z,0
2016-05-23T01:50:07.587Z,0
2016-05-23T01:51:22.264Z,0
2016-05-23T01:52:21.735Z,0
2016-05-23T01:53:07.610Z,0
2016-05-23T01:55:07.616Z,0
2016-05-23T01:56:07.229Z,0
2016-05-23T01:57:07.871Z,0
2016-05-23T01:58:07.874Z,0
2016-05-23T01:59:07.955Z,0
2016-05-23T02:00:07.910Z,0
2016-05-23T02:01:07.976Z,0
2016-05-23T02:02:07.962Z,0
2016-05-23T02:03:07.732Z,0
2016-05-23T02:04:07.734Z,0
2016-05-23T02:05:07.798Z,0
2016-05-23T02:06:22.023Z,0
2016-05-23T02:07:08.226Z,0
2016-05-23T02:08:08.447Z,0
2016-05-23T02:09:08.029Z,0
2016-05-23T02:10:07.720Z,0
2016-05-23T02:11:07.847Z,0
2016-05-23T02:12:08.287Z,0
2016-05-23T02:13:07.680Z,0
2016-05-23T02:14:07.744Z,0
2016-05-23T02:15:07.811Z,0
2016-05-23T02:16:08.078Z,0
2016-05-23T02:17:07.972Z,0
2016-05-23T02:18:07.880Z,0
2016-05-23T02:19:08.118Z,0
2016-05-23T02:20:08.339Z,0
2016-05-23T02:21:08.124Z,0
2016-05-23T02:22:08.564Z,0
2016-05-23T02:23:07.660Z,4
2016-05-23T02:24:07.944Z,4
2016-05-23T02:25:08.041Z,4
2016-05-23T02:26:08.152Z,0
2016-05-23T02:27:07.952Z,0
2016-05-23T02:28:07.971Z,4
2016-05-23T02:29:08.926Z,4
2016-05-23T02:31:08.323Z,4
2016-05-23T02:32:08.200Z,4
2016-05-23T02:33:07.579Z,8
2016-05-23T02:34:22.365Z,8
2016-05-23T02:35:22.148Z,8
2016-05-23T02:36:08.132Z,12
2016-05-23T02:37:08.119Z,12
2016-05-23T02:38:08.045Z,12
2016-05-23T02:39:22.597Z,16
2016-05-23T02:41:21.712Z,20
2016-05-23T02:42:08.603Z,20
2016-05-23T02:43:07.839Z,24
2016-05-23T02:44:08.170Z,28
2016-05-23T02:45:08.797Z,32
2016-05-23T02:46:08.394Z,36
2016-05-23T02:47:08.209Z,44
2016-05-23T02:48:08.852Z,48
2016-05-23T02:49:07.902Z,56
2016-05-23T02:50:07.905Z,64
2016-05-23T02:51:08.423Z,72
2016-05-23T02:52:08.441Z,84
2016-05-23T02:53:08.491Z,96
2016-05-23T02:54:08.290Z,108
2016-05-23T02:55:22.546Z,128
2016-05-23T02:56:07.968Z,140
2016-05-23T02:57:08.455Z,160
2016-05-23T02:58:08.505Z,180
2016-05-23T02:59:08.304Z,196
2016-05-23T03:00:08.321Z,216
2016-05-23T03:01:08.309Z,232
2016-05-23T03:02:22.846Z,260
2016-05-23T03:03:08.330Z,280
2016-05-23T03:04:08.426Z,308
2016-05-23T03:05:08.179Z,336
2016-05-23T03:06:22.434Z,372
2016-05-23T03:07:08.544Z,396
2016-05-23T03:08:08.562Z,428
2016-05-23T03:09:08.253Z,464
2016-05-23T03:11:08.633Z,536
2016-05-23T03:12:08.667Z,580
2016-05-23T03:13:08.498Z,624
2016-05-23T03:14:09.234Z,680
2016-05-23T03:15:08.675Z,740
2016-05-23T03:16:08.694Z,804
2016-05-23T03:17:22.511Z,888
2016-05-23T03:18:08.699Z,944
2016-05-23T03:19:09.138Z,1032
2016-05-23T03:20:08.564Z,1124
2016-05-23T03:21:08.363Z,1228
2016-05-23T03:22:08.522Z,1324
2016-05-23T03:23:08.509Z,1416
2016-05-23T03:24:08.605Z,1520
2016-05-23T03:25:08.546Z,1628
2016-05-23T03:26:08.674Z,1748
2016-05-23T03:27:08.552Z,1872
2016-05-23T03:28:08.585Z,1992
2016-05-23T03:29:22.918Z,2152
2016-05-23T03:30:08.606Z,2248
2016-05-23T03:31:08.796Z,2384
2016-05-23T03:32:08.580Z,2512
2016-05-23T03:33:08.848Z,2640
2016-05-23T03:34:09.038Z,2760
2016-05-23T03:35:08.728Z,2868
2016-05-23T03:36:09.263Z,2976
2016-05-23T03:37:08.843Z,3080
2016-05-23T03:38:08.721Z,3180
2016-05-23T03:39:08.848Z,3284
2016-05-23T03:40:08.883Z,3376
2016-05-23T03:41:08.792Z,3464
2016-05-23T03:42:23.187Z,3572
2016-05-23T03:43:09.219Z,3668
2016-05-23T03:44:08.831Z,3796
2016-05-23T03:46:08.992Z,4024
2016-05-23T03:47:08.933Z,4132
2016-05-23T03:48:08.763Z,4244
2016-05-23T03:49:08.970Z,4364
2016-05-23T03:50:08.800Z,4484
2016-05-23T03:52:23.121Z,4800
2016-05-23T03:53:08.871Z,4908
2016-05-23T03:54:08.874Z,5056
2016-05-23T03:55:08.830Z,5204
2016-05-23T03:56:08.583Z,5336
2016-05-23T03:57:08.835Z,5460
2016-05-23T03:58:09.103Z,5572
2016-05-23T03:59:09.277Z,5652
2016-05-23T04:00:08.483Z,5744
2016-05-23T04:01:09.143Z,5844
2016-05-23T04:02:22.820Z,5960
2016-05-23T04:03:08.257Z,6024
2016-05-23T04:04:09.135Z,6104
2016-05-23T04:05:08.997Z,6172
2016-05-23T04:06:09.156Z,6252
2016-05-23T04:07:09.174Z,6348
2016-05-23T04:08:09.177Z,6440
2016-05-23T04:09:23.073Z,6576
2016-05-23T04:10:23.060Z,6660
2016-05-23T04:11:08.748Z,6736
2016-05-23T04:12:08.844Z,6804
2016-05-23T04:13:09.253Z,6840
2016-05-23T04:14:09.084Z,6884
2016-05-23T04:15:09.196Z,6896
2016-05-23T04:16:09.276Z,6916
2016-05-23T04:17:23.173Z,6924
2016-05-23T04:18:09.517Z,6932
2016-05-23T04:19:23.209Z,6904
2016-05-23T04:20:23.369Z,6864
2016-05-23T04:21:08.790Z,6848
2016-05-23T04:22:08.636Z,6832
2016-05-23T04:23:09.420Z,6840
2016-05-23T04:25:09.238Z,6824
2016-05-23T04:26:09.038Z,6848
2016-05-23T04:27:09.447Z,6944
2016-05-23T04:28:09.403Z,7044
2016-05-23T04:30:09.689Z,7096
2016-05-23T04:31:09.238Z,7228
2016-05-23T04:32:09.648Z,7280
2016-05-23T04:33:23.309Z,7464
2016-05-23T04:34:09.496Z,7588
2016-05-23T04:35:09.468Z,7736
2016-05-23T04:36:09.471Z,7880
2016-05-23T04:37:09.537Z,8164
2016-05-23T04:39:09.323Z,8620
2016-05-23T04:40:09.513Z,8684
2016-05-23T04:41:09.328Z,8796
2016-05-23T04:42:09.721Z,8808
2016-05-23T04:43:09.365Z,8572
2016-05-23T04:44:09.774Z,8368
2016-05-23T04:45:09.495Z,8352
2016-05-23T04:46:09.451Z,8280
2016-05-23T04:47:37.753Z,8272
2016-05-23T04:48:09.519Z,8312
2016-05-23T04:49:09.615Z,8324
2016-05-23T04:50:09.478Z,8224
2016-05-23T04:51:09.668Z,8156
2016-05-23T04:52:09.312Z,8164
2016-05-23T04:53:10.141Z,8236
2016-05-23T04:55:09.475Z,8472
2016-05-23T04:56:09.775Z,8580
2016-05-23T04:57:09.497Z,8640
2016-05-23T04:58:09.984Z,8668
2016-05-23T04:59:09.330Z,8620
2016-05-23T05:00:10.879Z,8516
2016-05-23T05:01:09.977Z,8376
2016-05-23T05:02:09.588Z,8256
2016-05-23T05:03:09.763Z,8196
2016-05-23T05:04:09.827Z,8144
2016-05-23T05:05:09.612Z,8128
2016-05-23T05:06:23.880Z,8108
2016-05-23T05:07:09.633Z,8124
2016-05-23T05:08:09.932Z,8148
2016-05-23T05:09:09.919Z,8208
2016-05-23T05:10:10.110Z,8224
2016-05-23T05:11:09.534Z,8220
2016-05-23T05:12:09.552Z,8208
2016-05-23T05:13:24.368Z,8180
2016-05-23T05:14:23.776Z,8144
2016-05-23T05:15:09.654Z,8096
2016-05-23T05:16:09.734Z,8040
2016-05-23T05:18:09.631Z,7824
2016-05-23T05:19:09.525Z,7740
2016-05-23T05:20:10.214Z,7664
2016-05-23T05:21:09.796Z,7616
2016-05-23T05:22:09.814Z,7596
2016-05-23T05:23:09.925Z,7608
2016-05-23T05:24:09.851Z,7620
2016-05-23T05:25:09.697Z,7680
2016-05-23T05:26:09.918Z,7784
2016-05-23T05:27:10.047Z,7920
2016-05-23T05:28:09.736Z,8148
2016-05-23T05:29:24.177Z,8536
2016-05-23T05:30:11.226Z,8784
2016-05-23T05:31:24.010Z,9012
2016-05-23T05:32:09.997Z,9032
2016-05-23T05:33:09.468Z,9024
2016-05-23T05:34:10.002Z,8968
2016-05-23T05:35:09.958Z,8960
2016-05-23T05:36:09.992Z,8900
2016-05-23T05:37:12.057Z,8912
2016-05-23T05:38:09.841Z,9092
2016-05-23T05:39:10.110Z,9292
2016-05-23T05:40:10.066Z,9304
2016-05-23T05:41:10.427Z,9260
2016-05-23T05:42:10.258Z,9508
2016-05-23T05:43:09.574Z,9604
2016-05-23T05:44:09.967Z,9628
2016-05-23T05:45:10.016Z,9544
2016-05-23T05:46:09.690Z,9352
2016-05-23T05:47:09.990Z,8908
2016-05-23T05:48:24.306Z,8312
2016-05-23T05:49:10.183Z,8252
2016-05-23T05:50:10.248Z,8468
2016-05-23T05:51:10.392Z,8000
2016-05-23T05:52:10.020Z,7812
2016-05-23T05:53:10.225Z,7900
2016-05-23T05:54:09.712Z,7680
2016-05-23T05:55:10.231Z,8016
2016-05-23T05:56:10.436Z,8256
2016-05-23T05:57:10.423Z,8396
2016-05-23T05:58:10.255Z,8344
2016-05-23T05:59:10.461Z,8596
2016-05-23T06:00:10.681Z,8852
2016-05-23T06:01:10.403Z,9100
2016-05-23T06:02:10.312Z,9296
2016-05-23T06:03:10.394Z,9360
2016-05-23T06:04:10.521Z,9184
2016-05-23T06:05:10.602Z,9676
2016-05-23T06:06:11.089Z,10380
2016-05-23T06:07:24.435Z,10888
2016-05-23T06:08:10.406Z,11080
2016-05-23T06:09:10.252Z,10980
2016-05-23T06:10:10.630Z,11052
2016-05-23T06:11:10.446Z,11024
2016-05-23T06:12:10.698Z,11332
2016-05-23T06:13:25.420Z,11804
2016-05-23T06:14:10.875Z,12148
2016-05-23T06:15:10.332Z,12376
2016-05-23T06:16:13.240Z,12660
2016-05-23T06:18:10.496Z,12608
2016-05-23T06:19:10.499Z,12172
2016-05-23T06:20:10.751Z,11860
2016-05-23T06:21:10.567Z,12200
2016-05-23T06:22:10.554Z,13408
2016-05-23T06:23:10.681Z,14588
2016-05-23T06:24:10.620Z,15228
2016-05-23T06:25:10.998Z,16152
2016-05-23T06:26:10.611Z,17408
2016-05-23T06:27:10.661Z,18560
2016-05-23T06:28:10.475Z,19584
2016-05-23T06:30:10.637Z,17376
2016-05-23T06:33:25.458Z,14136
2016-05-23T06:34:24.805Z,13304
2016-05-23T06:35:24.651Z,12308
2016-05-23T06:36:12.669Z,11768
2016-05-23T06:37:11.000Z,11840
2016-05-23T06:38:10.784Z,10592
2016-05-23T06:39:11.178Z,10140
2016-05-23T06:40:10.820Z,9288
2016-05-23T06:41:12.339Z,9584
2016-05-23T06:42:11.044Z,10544
2016-05-23T06:43:10.563Z,10156
2016-05-23T06:44:24.971Z,9920
2016-05-23T06:45:11.006Z,9644
2016-05-23T06:46:11.196Z,8760
2016-05-23T06:47:11.121Z,9044
2016-05-23T06:48:10.921Z,9204
2016-05-23T06:49:11.261Z,9404
2016-05-23T06:50:11.852Z,8516
2016-05-23T06:51:11.442Z,8364
2016-05-23T06:53:11.092Z,8980
2016-05-23T06:54:10.947Z,9252
2016-05-23T06:55:12.568Z,9240
2016-05-23T06:56:11.252Z,10104
2016-05-23T06:57:11.203Z,10812
2016-05-23T06:58:11.260Z,11892
2016-05-23T06:59:11.735Z,12848
2016-05-23T07:00:13.896Z,14148
2016-05-23T07:01:11.341Z,14776
2016-05-23T07:02:11.815Z,15000
2016-05-23T07:03:11.383Z,15028
2016-05-23T07:04:11.497Z,16128
2016-05-23T07:05:11.360Z,17088
2016-05-23T07:06:12.300Z,17792
2016-05-23T07:07:11.617Z,18336
2016-05-23T07:08:11.418Z,18400
2016-05-23T07:09:11.608Z,18208
2016-05-23T07:10:11.439Z,18144
2016-05-23T07:11:25.568Z,17856
2016-05-23T07:12:11.711Z,17440
2016-05-23T07:13:11.480Z,16468
2016-05-23T07:14:11.702Z,15340
2016-05-23T07:15:11.362Z,14392
2016-05-23T07:16:11.520Z,13820
2016-05-23T07:17:11.524Z,13964
2016-05-23T07:18:11.543Z,14488
2016-05-23T07:19:11.357Z,14928
2016-05-23T07:20:11.751Z,15700
2016-05-23T07:22:11.632Z,16808
2016-05-23T07:23:25.900Z,15464
2016-05-23T07:24:11.715Z,14436
2016-05-23T07:25:11.608Z,13896
2016-05-23T07:26:11.642Z,14644
2016-05-23T07:27:25.926Z,15984
2016-05-23T07:28:11.897Z,16060
2016-05-23T07:29:26.197Z,16352
2016-05-23T07:30:39.843Z,17408
2016-05-23T07:31:11.718Z,17568
2016-05-23T07:32:11.923Z,17472
2016-05-23T07:33:11.598Z,17184
2016-05-23T07:34:11.772Z,19200
2016-05-23T07:35:11.964Z,20288
2016-05-23T07:36:13.044Z,19616
2016-05-23T07:37:11.828Z,17536
2016-05-23T07:38:25.893Z,16028
2016-05-23T07:39:11.818Z,15404
2016-05-23T07:40:11.727Z,15324
2016-05-23T07:41:13.761Z,16196
2016-05-23T07:42:11.872Z,17632
2016-05-23T07:43:12.125Z,18848
2016-05-23T07:44:11.955Z,19680
2016-05-23T07:45:11.975Z,19200
2016-05-23T07:46:13.696Z,18016
2016-05-23T07:47:12.166Z,16792
2016-05-23T07:48:12.341Z,17064
2016-05-23T07:49:26.219Z,17760
2016-05-23T07:50:12.159Z,17408
2016-05-23T07:51:12.069Z,8040
2016-05-23T07:52:12.243Z,16472
2016-05-23T07:53:11.902Z,16944
2016-05-23T07:54:12.092Z,17952
2016-05-23T07:55:26.126Z,19648
2016-05-23T07:56:12.254Z,20512
2016-05-23T07:57:12.663Z,20992
2016-05-23T07:58:12.525Z,20288
2016-05-23T07:59:12.137Z,19232
2016-05-23T08:00:12.186Z,18368
2016-05-23T08:02:12.364Z,18688
2016-05-23T08:03:26.898Z,20800
2016-05-23T08:04:12.416Z,20832
2016-05-23T08:05:15.090Z,19872
2016-05-23T08:06:26.343Z,22208
2016-05-23T08:07:15.081Z,22528
2016-05-23T08:08:12.473Z,22688
2016-05-23T08:09:12.492Z,22816
2016-05-23T08:10:12.339Z,23584
2016-05-23T08:11:14.436Z,24672
2016-05-23T08:12:26.750Z,26368
2016-05-23T08:13:40.506Z,26848
2016-05-23T08:14:12.569Z,26656
2016-05-23T08:15:12.867Z,25664
2016-05-23T08:16:12.198Z,26016
2016-05-23T08:17:12.404Z,26784
2016-05-23T08:18:15.500Z,27552
2016-05-23T08:19:12.472Z,28000
2016-05-23T08:20:12.491Z,27872
2016-05-23T08:21:13.915Z,26624
2016-05-23T08:22:12.511Z,25632
2016-05-23T08:23:12.498Z,25824
2016-05-23T08:24:12.548Z,28160
2016-05-23T08:25:15.518Z,29056
2016-05-23T08:26:12.929Z,27200
2016-05-23T08:27:12.618Z,25664
2016-05-23T08:28:12.606Z,27040
2016-05-23T08:29:12.889Z,21440
2016-05-23T08:30:26.892Z,16392
2016-05-23T08:31:14.035Z,14800
2016-05-23T08:32:13.179Z,15448
2016-05-23T08:33:12.665Z,19488
2016-05-23T08:34:15.747Z,17092
2016-05-23T08:35:13.109Z,14584
2016-05-23T08:36:12.721Z,13732
2016-05-23T08:37:12.770Z,14252
2016-05-23T08:38:12.601Z,14572
2016-05-23T08:39:12.979Z,15548
2016-05-23T08:40:12.856Z,18016
2016-05-23T08:41:13.156Z,19168
2016-05-23T08:42:30.111Z,16264
2016-05-23T08:43:16.442Z,15404
2016-05-23T08:44:14.195Z,15384
2016-05-23T08:45:15.995Z,15280
2016-05-23T08:46:14.576Z,15468
2016-05-23T08:47:12.625Z,15820
2016-05-23T08:48:13.097Z,16252
2016-05-23T08:49:12.303Z,16156
2016-05-23T08:50:13.118Z,15136
2016-05-23T08:51:13.151Z,14976
2016-05-23T08:52:12.998Z,14600
2016-05-23T08:53:27.266Z,15144
2016-05-23T08:54:12.988Z,15904
2016-05-23T08:55:13.038Z,16008
2016-05-23T08:56:14.369Z,15788
2016-05-23T08:57:12.887Z,15612
2016-05-23T08:58:13.155Z,15276
2016-05-23T08:59:13.110Z,16256
2016-05-23T09:00:13.379Z,16836
2016-05-23T09:01:13.101Z,17148
2016-05-23T09:02:12.978Z,17352
2016-05-23T09:03:13.231Z,17484
2016-05-23T09:04:16.390Z,17320
2016-05-23T09:05:13.174Z,17392
2016-05-23T09:06:13.192Z,17356
2016-05-23T09:07:13.195Z,17300
2016-05-23T09:08:13.495Z,17376
2016-05-23T09:09:14.231Z,17200
2016-05-23T09:10:13.250Z,17680
2016-05-23T09:11:13.096Z,18032
2016-05-23T09:12:13.239Z,18272
2016-05-23T09:13:13.258Z,18752
2016-05-23T09:14:13.136Z,19104
2016-05-23T09:15:13.561Z,19040
2016-05-23T09:16:13.344Z,18624
2016-05-23T09:17:13.331Z,20160
2016-05-23T09:18:14.147Z,22176
2016-05-23T09:19:13.228Z,22528
2016-05-23T09:20:13.605Z,21312
2016-05-23T09:21:13.420Z,20224
2016-05-23T09:22:13.594Z,20192
2016-05-23T09:23:13.425Z,20032
2016-05-23T09:24:13.443Z,19936
2016-05-23T09:25:13.555Z,21056
2016-05-23T09:26:13.449Z,21984
2016-05-23T09:27:14.780Z,22496
2016-05-23T09:28:13.360Z,22432
2016-05-23T09:29:13.379Z,21472
2016-05-23T09:30:16.866Z,21664
2016-05-23T09:31:13.540Z,22144
2016-05-23T09:32:13.559Z,20768
2016-05-23T09:33:13.577Z,20160
2016-05-23T09:34:13.783Z,20832
2016-05-23T09:35:13.301Z,21984
2016-05-23T09:36:28.039Z,22080
2016-05-23T09:37:16.587Z,24832
2016-05-23T09:38:13.684Z,24192
2016-05-23T09:39:14.156Z,23936
2016-05-23T09:40:13.705Z,26112
2016-05-23T09:41:13.536Z,25504
2016-05-23T09:42:13.789Z,28224
2016-05-23T09:43:13.979Z,29152
2016-05-23T09:44:14.404Z,27008
2016-05-23T09:45:13.813Z,26176
2016-05-23T09:46:13.691Z,23648
2016-05-23T09:47:14.068Z,26880
2016-05-23T09:48:13.962Z,30368
2016-05-23T09:49:13.839Z,30752
2016-05-23T09:50:13.888Z,29824
2016-05-23T09:51:13.391Z,30432
2016-05-23T09:52:14.425Z,31776
2016-05-23T09:53:13.772Z,30688
2016-05-23T09:54:13.774Z,29344
2016-05-23T09:55:14.199Z,27680
2016-05-23T09:57:14.079Z,27008
2016-05-23T09:58:13.832Z,27232
2016-05-23T09:59:15.101Z,26976
2016-05-23T10:00:14.385Z,29536
2016-05-23T10:01:14.043Z,31936
2016-05-23T10:02:14.452Z,31744
2016-05-23T10:03:14.080Z,30400
2016-05-23T10:04:14.115Z,29536
2016-05-23T10:05:14.538Z,28384
2016-05-23T10:06:14.135Z,27584
2016-05-23T10:07:17.122Z,28224
2016-05-23T10:08:28.531Z,28640
2016-05-23T10:09:28.236Z,27360
2016-05-23T10:10:14.067Z,26336
2016-05-23T10:11:14.273Z,25184
2016-05-23T10:12:14.432Z,24480
2016-05-23T10:13:14.434Z,23712
2016-05-23T10:14:14.797Z,23040
2016-05-23T10:15:14.315Z,23648
2016-05-23T10:16:14.318Z,24160
2016-05-23T10:17:14.414Z,25088
2016-05-23T10:18:14.369Z,26240
2016-05-23T10:19:14.170Z,27392
2016-05-23T10:20:14.391Z,28160
2016-05-23T10:21:14.363Z,27136
2016-05-23T10:22:14.583Z,27584
2016-05-23T10:23:14.399Z,27872
2016-05-23T10:24:14.433Z,27520
2016-05-23T10:25:14.733Z,26496
2016-05-23T10:26:14.469Z,25984
2016-05-23T10:27:14.285Z,26080
2016-05-23T10:28:14.429Z,26208
2016-05-23T10:29:14.510Z,28320
2016-05-23T10:30:14.777Z,30944
2016-05-23T10:31:14.780Z,33696
2016-05-23T10:32:14.627Z,35296
2016-05-23T10:33:14.552Z,34912
2016-05-23T10:34:14.756Z,33440
2016-05-23T10:35:14.462Z,32672
2016-05-23T10:36:14.637Z,32704
2016-05-23T10:37:14.656Z,33120
2016-05-23T10:38:14.845Z,34240
2016-05-23T10:39:14.583Z,35776
2016-05-23T10:40:14.742Z,36160
2016-05-23T10:41:14.964Z,34816
2016-05-23T10:42:14.731Z,33824
2016-05-23T10:43:14.969Z,33312
2016-05-23T10:44:15.142Z,32896
2016-05-23T10:45:14.927Z,31168
2016-05-23T10:46:14.836Z,29184
2016-05-23T10:47:14.667Z,29056
2016-05-23T10:48:14.700Z,27712
2016-05-23T10:49:15.063Z,28576
2016-05-23T10:50:14.878Z,29056
2016-05-23T10:51:14.928Z,28288
2016-05-23T10:52:14.914Z,26720
2016-05-23T10:53:14.949Z,25792
2016-05-23T10:54:14.920Z,25280
2016-05-23T10:55:15.205Z,24960
2016-05-23T10:56:15.019Z,24832
2016-05-23T10:57:14.584Z,24736
2016-05-23T10:58:15.212Z,24896
2016-05-23T10:59:15.027Z,24512
2016-05-23T11:00:15.265Z,24160
2016-05-23T11:01:14.923Z,23488
2016-05-23T11:02:14.941Z,22720
2016-05-23T11:03:14.944Z,21920
2016-05-23T11:04:14.869Z,21408
2016-05-23T11:05:15.371Z,20992
2016-05-23T11:06:29.218Z,21824
2016-05-23T11:07:15.252Z,22432
2016-05-23T11:08:15.255Z,22848
2016-05-23T11:09:15.492Z,23072
2016-05-23T11:10:15.073Z,22784
2016-05-23T11:11:15.325Z,22464
2016-05-23T11:12:15.312Z,22752
2016-05-23T11:13:29.378Z,23360
2016-05-23T11:14:15.130Z,24192
2016-05-23T11:15:15.601Z,25536
2016-05-23T11:16:29.604Z,24480
2016-05-23T11:17:15.389Z,22240
2016-05-23T11:18:15.501Z,21824
2016-05-23T11:19:15.675Z,21984
2016-05-23T11:20:15.459Z,21664
2016-05-23T11:21:29.508Z,21760
2016-05-23T11:22:15.464Z,22048
2016-05-23T11:23:29.764Z,22688
2016-05-23T11:24:15.469Z,22816
2016-05-23T11:25:16.128Z,22784
2016-05-23T11:26:15.491Z,25440
2016-05-23T11:27:15.525Z,27616
2016-05-23T11:28:15.746Z,26432
2016-05-23T11:29:15.546Z,25184
2016-05-23T11:30:15.846Z,28288
2016-05-23T11:31:15.676Z,29472
2016-05-23T11:32:15.835Z,27936
2016-05-23T11:33:15.666Z,26400
2016-05-23T11:34:15.872Z,25760
2016-05-23T11:35:15.202Z,26944
2016-05-23T11:36:15.940Z,28928
2016-05-23T11:37:15.708Z,30400
2016-05-23T11:38:15.945Z,33280
2016-05-23T11:39:16.932Z,34496
2016-05-23T11:40:29.809Z,33952
2016-05-23T11:41:15.796Z,34432
2016-05-23T11:42:16.128Z,35392
2016-05-23T11:43:15.833Z,35168
2016-05-23T11:44:16.133Z,34016
2016-05-23T11:45:16.354Z,32160
2016-05-23T11:47:15.906Z,29024
2016-05-23T11:48:15.894Z,27872
2016-05-23T11:49:15.692Z,27488
2016-05-23T11:50:15.961Z,28896
2016-05-23T11:51:15.995Z,29760
2016-05-23T11:52:16.108Z,30400
2016-05-23T11:53:16.204Z,31552
2016-05-23T11:54:30.128Z,32384
2016-05-23T11:55:17.069Z,32352
2016-05-23T11:56:16.633Z,33472
2016-05-23T11:57:16.105Z,35648
2016-05-23T11:58:16.077Z,34912
2016-05-23T11:59:18.424Z,34400
2016-05-23T12:00:17.520Z,33088
2016-05-23T12:02:16.399Z,26624
2016-05-23T12:03:16.730Z,27680
2016-05-23T12:04:16.483Z,31296
2016-05-23T12:05:16.721Z,32832
2016-05-23T12:06:16.818Z,36064
2016-05-23T12:07:16.679Z,38048
2016-05-23T12:08:16.526Z,36896
2016-05-23T12:09:17.247Z,33984
2016-05-23T12:10:16.672Z,32192
2016-05-23T12:12:16.848Z,29952
2016-05-23T12:13:17.320Z,30304
2016-05-23T12:14:16.964Z,30112
2016-05-23T12:15:31.170Z,26240
2016-05-23T12:16:17.250Z,28832
2016-05-23T12:17:31.112Z,32896
2016-05-23T12:18:17.536Z,33280
2016-05-23T12:19:17.008Z,32256
2016-05-23T12:20:17.308Z,28032
2016-05-23T12:21:17.061Z,31744
2016-05-23T12:22:17.282Z,31776
2016-05-23T12:23:17.441Z,32096
2016-05-23T12:24:17.459Z,31264
2016-05-23T12:25:17.368Z,26624
2016-05-23T12:26:16.980Z,21632
2016-05-23T12:28:17.361Z,24608
2016-05-23T12:30:18.647Z,22880
2016-05-23T12:31:16.306Z,21664
2016-05-23T12:32:31.340Z,25472
2016-05-23T12:33:16.702Z,29472
2016-05-23T12:34:17.626Z,27360
2016-05-23T12:35:17.270Z,25440
2016-05-23T12:36:17.663Z,18016
2016-05-23T12:37:30.932Z,24000
2016-05-23T12:38:17.107Z,26368
2016-05-23T12:39:17.031Z,24768
2016-05-23T12:40:18.611Z,24928
2016-05-23T12:41:17.020Z,24320
2016-05-23T12:42:17.945Z,23392
2016-05-23T12:43:18.963Z,23456
2016-05-23T12:44:17.357Z,21824
2016-05-23T12:45:18.109Z,21088
2016-05-23T12:46:17.581Z,21760
2016-05-23T12:47:19.021Z,21696
2016-05-23T12:48:19.087Z,21728
2016-05-23T12:49:17.901Z,17312
2016-05-23T12:50:17.622Z,14112
2016-05-23T12:51:19.407Z,17856
2016-05-23T12:52:18.081Z,22080
2016-05-23T12:53:21.428Z,23584
2016-05-23T12:54:18.306Z,23520
2016-05-23T12:55:18.511Z,22688
2016-05-23T12:56:17.122Z,21472
2016-05-23T12:57:17.766Z,22688
2016-05-23T12:58:17.738Z,23584
2016-05-23T12:59:17.975Z,23552
2016-05-23T13:00:17.758Z,24768
2016-05-23T13:01:17.761Z,24640
2016-05-23T13:02:17.671Z,23968
2016-05-23T13:03:17.752Z,23584
2016-05-23T13:04:17.613Z,22368
2016-05-23T13:06:31.947Z,22752
2016-05-23T13:07:17.902Z,23136
2016-05-23T13:08:18.718Z,23936
2016-05-23T13:09:18.221Z,23808
2016-05-23T13:10:18.224Z,22688
2016-05-23T13:11:18.304Z,21472
2016-05-23T13:12:18.666Z,21760
2016-05-23T13:13:18.137Z,21600
2016-05-23T13:14:18.562Z,19936
2016-05-23T13:16:18.662Z,18848
2016-05-23T13:17:17.914Z,23616
2016-05-23T13:18:31.948Z,25760
2016-05-23T13:19:17.685Z,25824
2016-05-23T13:20:17.734Z,24288
2016-05-23T13:21:18.097Z,23456
2016-05-23T13:22:17.959Z,24640
2016-05-23T13:23:19.008Z,26656
2016-05-23T13:24:19.417Z,27808
2016-05-23T13:25:19.170Z,26720
2016-05-23T13:26:32.533Z,25504
2016-05-23T13:27:18.331Z,24992
2016-05-23T13:28:18.178Z,24128
2016-05-23T13:29:17.978Z,22784
2016-05-23T13:30:19.371Z,17320
2016-05-23T13:31:32.889Z,15632
2016-05-23T13:32:18.798Z,19136
2016-05-23T13:33:18.739Z,20352
2016-05-23T13:34:18.616Z,19424
2016-05-23T13:35:17.556Z,18528
2016-05-23T13:36:17.966Z,20672
2016-05-23T13:37:18.327Z,24608
2016-05-23T13:38:18.735Z,27904
2016-05-23T13:39:18.396Z,30560
2016-05-23T13:40:18.288Z,31488
2016-05-23T13:41:18.244Z,32768
2016-05-23T13:42:18.497Z,32384
2016-05-23T13:43:18.110Z,31712
2016-05-23T13:44:18.314Z,28832
2016-05-23T13:46:18.554Z,25536
2016-05-23T13:47:18.182Z,26016
2016-05-23T13:48:18.575Z,27968
2016-05-23T13:50:18.643Z,25728
2016-05-23T13:51:18.443Z,23840
2016-05-23T13:52:18.446Z,23104
2016-05-23T13:53:18.371Z,22944
2016-05-23T13:54:18.153Z,23712
2016-05-23T13:55:19.141Z,23264